createdAt,value
2022-10-29T00:00:17.029Z,98.8
2022-10-29T00:01:16.635Z,98.8
2022-10-29T00:02:17.327Z,98.8
2022-10-29T00:03:17.058Z,98.8
2022-10-29T00:04:16.552Z,98.9
2022-10-29T00:05:17.029Z,98.8
2022-10-29T00:06:16.488Z,98.8
2022-10-29T00:07:16.957Z,98.9
2022-10-29T00:08:17.399Z,99.0
2022-10-29T00:09:16.855Z,99.0
2022-10-29T00:10:17.327Z,99.0
2022-10-29T00:11:16.845Z,99.1
2022-10-29T00:12:17.398Z,99.1
2022-10-29T00:13:16.854Z,99.1
2022-10-29T00:14:17.298Z,99.0
2022-10-29T00:15:16.782Z,99.1
2022-10-29T00:16:17.266Z,99.1
2022-10-29T00:17:16.711Z,99.2
2022-10-29T00:18:17.160Z,99.2
2022-10-29T00:19:16.586Z,99.3
2022-10-29T00:20:17.035Z,99.3
2022-10-29T00:21:16.470Z,99.3
2022-10-29T00:22:16.943Z,99.2
2022-10-29T00:23:17.383Z,99.2
2022-10-29T00:24:16.854Z,99.2
2022-10-29T00:25:17.353Z,99.2
2022-10-29T00:26:16.879Z,99.2
2022-10-29T00:27:17.384Z,99.2
2022-10-29T00:28:16.864Z,99.2
2022-10-29T00:29:17.332Z,99.1
2022-10-29T00:30:16.808Z,99.2
2022-10-29T00:31:17.254Z,99.2
2022-10-29T00:32:17.298Z,99.1
2022-10-29T00:33:16.977Z,99.2
2022-10-29T00:34:16.424Z,99.2
2022-10-29T00:35:16.866Z,99.2
2022-10-29T00:36:17.305Z,99.2
2022-10-29T00:37:16.738Z,99.2
2022-10-29T00:38:17.203Z,99.2
2022-10-29T00:39:16.663Z,99.3
2022-10-29T00:40:17.134Z,99.4
2022-10-29T00:41:16.593Z,99.3
2022-10-29T00:42:17.044Z,99.3
2022-10-29T00:43:16.548Z,99.4
2022-10-29T00:44:17.042Z,99.3
2022-10-29T00:45:16.528Z,99.3
2022-10-29T00:46:16.966Z,99.3
2022-10-29T00:47:17.419Z,99.1
2022-10-29T00:48:16.863Z,99.1
2022-10-29T00:49:17.322Z,99.2
2022-10-29T00:50:16.785Z,99.2
2022-10-29T00:51:17.214Z,99.2
2022-10-29T00:52:17.067Z,99.2
2022-10-29T00:53:16.518Z,99.2
2022-10-29T00:54:16.983Z,99.2
2022-10-29T00:55:16.447Z,99.2
2022-10-29T00:56:16.911Z,99.2
2022-10-29T00:57:17.399Z,99.2
2022-10-29T00:58:16.869Z,99.2
2022-10-29T00:59:17.359Z,99.2
2022-10-29T01:00:16.834Z,99.2
2022-10-29T01:01:17.553Z,99.2
2022-10-29T01:02:17.411Z,99.2
2022-10-29T01:03:16.966Z,99.2
2022-10-29T01:04:17.394Z,99.2
2022-10-29T01:05:16.849Z,99.2
2022-10-29T01:06:17.270Z,99.2
2022-10-29T01:07:16.742Z,99.2
2022-10-29T01:08:17.216Z,99.2
2022-10-29T01:09:16.683Z,99.2
2022-10-29T01:10:17.171Z,99.2
2022-10-29T01:11:16.751Z,99.3
2022-10-29T01:12:16.707Z,99.3
2022-10-29T01:14:16.643Z,99.3
2022-10-29T01:15:17.101Z,99.3
2022-10-29T01:16:16.548Z,99.3
2022-10-29T01:17:18.138Z,99.3
2022-10-29T01:18:16.610Z,99.4
2022-10-29T01:19:17.211Z,99.5
2022-10-29T01:20:16.721Z,99.6
2022-10-29T01:21:17.150Z,99.8
2022-10-29T01:22:17.001Z,99.7
2022-10-29T01:23:16.453Z,99.6
2022-10-29T01:24:16.925Z,99.5
2022-10-29T01:25:17.388Z,99.4
2022-10-29T01:26:16.867Z,99.3
2022-10-29T01:27:17.354Z,99.3
2022-10-29T01:28:16.868Z,99.3
2022-10-29T01:29:17.386Z,99.3
2022-10-29T01:30:16.831Z,99.3
2022-10-29T01:31:17.261Z,99.3
2022-10-29T01:32:16.732Z,99.3
2022-10-29T01:33:17.166Z,99.3
2022-10-29T01:34:16.613Z,99.4
2022-10-29T01:35:17.036Z,99.4
2022-10-29T01:36:16.483Z,99.4
2022-10-29T01:37:16.960Z,99.5
2022-10-29T01:38:17.438Z,99.5
2022-10-29T01:39:16.911Z,99.5
2022-10-29T01:40:17.399Z,99.5
2022-10-29T01:41:16.876Z,99.5
2022-10-29T01:42:17.162Z,99.5
2022-10-29T01:43:16.775Z,99.4
2022-10-29T01:44:17.279Z,99.5
2022-10-29T01:45:16.731Z,99.5
2022-10-29T01:46:17.173Z,99.5
2022-10-29T01:47:16.623Z,99.5
2022-10-29T01:48:17.083Z,99.5
2022-10-29T01:49:16.508Z,99.5
2022-10-29T01:50:16.932Z,99.5
2022-10-29T01:51:17.391Z,99.5
2022-10-29T01:52:16.969Z,99.5
2022-10-29T01:53:17.432Z,99.5
2022-10-29T01:54:16.914Z,99.5
2022-10-29T01:55:17.404Z,99.7
2022-10-29T01:56:16.894Z,99.8
2022-10-29T01:57:17.374Z,100.0
2022-10-29T01:59:35.817Z,100.0
2022-10-29T02:00:16.564Z,100.0
2022-10-29T02:01:17.322Z,99.8
2022-10-29T02:02:16.640Z,99.7
2022-10-29T02:03:17.112Z,99.7
2022-10-29T02:04:16.545Z,99.6
2022-10-29T02:05:16.993Z,99.5
2022-10-29T02:06:16.430Z,99.5
2022-10-29T02:07:17.060Z,99.5
2022-10-29T02:08:16.535Z,99.5
2022-10-29T02:09:16.999Z,99.4
2022-10-29T02:10:16.457Z,99.4
2022-10-29T02:11:16.951Z,99.3
2022-10-29T02:12:16.935Z,99.3
2022-10-29T02:13:17.497Z,99.3
2022-10-29T02:14:17.031Z,99.4
2022-10-29T02:15:16.453Z,99.4
2022-10-29T02:16:16.900Z,99.4
2022-10-29T02:17:17.386Z,99.5
2022-10-29T02:18:16.907Z,99.5
2022-10-29T02:19:17.372Z,99.5
2022-10-29T02:20:16.805Z,99.5
2022-10-29T02:21:17.233Z,99.5
2022-10-29T02:22:17.096Z,99.5
2022-10-29T02:23:16.581Z,99.5
2022-10-29T02:24:17.081Z,99.5
2022-10-29T02:25:16.719Z,99.5
2022-10-29T02:26:17.250Z,99.5
2022-10-29T02:27:16.706Z,99.5
2022-10-29T02:28:17.279Z,99.5
2022-10-29T02:29:16.757Z,99.5
2022-10-29T02:30:17.200Z,99.5
2022-10-29T02:31:16.647Z,99.5
2022-10-29T02:32:17.313Z,99.5
2022-10-29T02:33:16.732Z,99.5
2022-10-29T02:34:17.191Z,99.6
2022-10-29T02:35:16.616Z,99.6
2022-10-29T02:36:17.054Z,99.6
2022-10-29T02:37:16.510Z,99.6
2022-10-29T02:38:16.961Z,99.7
2022-10-29T02:39:17.412Z,99.7
2022-10-29T02:40:16.877Z,99.7
2022-10-29T02:41:17.324Z,99.8
2022-10-29T02:42:17.229Z,99.8
2022-10-29T02:43:16.868Z,99.8
2022-10-29T02:44:17.357Z,99.9
2022-10-29T02:45:16.815Z,100.0
2022-10-29T02:46:17.253Z,100.0
2022-10-29T02:47:16.721Z,100.0
2022-10-29T02:48:17.164Z,100.0
2022-10-29T02:49:16.590Z,100.0
2022-10-29T02:50:16.473Z,100.0
2022-10-29T02:51:16.966Z,100.0
2022-10-29T02:52:16.534Z,100.0
2022-10-29T02:53:16.987Z,100.0
2022-10-29T02:54:16.465Z,99.9
2022-10-29T02:55:16.936Z,99.9
2022-10-29T02:56:17.421Z,99.8
2022-10-29T02:57:16.902Z,99.8
2022-10-29T02:58:17.481Z,99.9
2022-10-29T02:59:17.011Z,99.8
2022-10-29T03:00:16.477Z,99.8
2022-10-29T03:01:16.980Z,99.8
2022-10-29T03:02:16.819Z,99.8
2022-10-29T03:03:17.335Z,99.8
2022-10-29T03:04:16.760Z,99.8
2022-10-29T03:05:17.210Z,99.8
2022-10-29T03:06:16.657Z,99.8
2022-10-29T03:07:17.126Z,99.8
2022-10-29T03:08:16.602Z,99.8
2022-10-29T03:09:17.075Z,99.8
2022-10-29T03:10:16.552Z,99.7
2022-10-29T03:11:17.034Z,99.7
2022-10-29T03:12:16.577Z,99.7
2022-10-29T03:13:17.021Z,99.8
2022-10-29T03:14:16.465Z,99.7
2022-10-29T03:15:16.941Z,99.7
2022-10-29T03:16:17.383Z,99.8
2022-10-29T03:17:17.144Z,99.7
2022-10-29T03:18:16.600Z,99.7
2022-10-29T03:19:17.081Z,99.7
2022-10-29T03:20:16.542Z,99.8
2022-10-29T03:21:17.050Z,99.8
2022-10-29T03:22:17.146Z,99.8
2022-10-29T03:23:16.623Z,99.8
2022-10-29T03:24:17.089Z,99.8
2022-10-29T03:25:16.585Z,99.8
2022-10-29T03:26:17.065Z,99.8
2022-10-29T03:27:16.534Z,99.8
2022-10-29T03:28:16.990Z,99.8
2022-10-29T03:29:16.420Z,99.8
2022-10-29T03:30:16.922Z,99.8
2022-10-29T03:31:17.398Z,99.8
2022-10-29T03:32:16.849Z,99.8
2022-10-29T03:33:17.284Z,99.8
2022-10-29T03:34:16.743Z,99.8
2022-10-29T03:35:17.191Z,99.8
2022-10-29T03:36:16.836Z,99.8
2022-10-29T03:37:17.380Z,99.8
2022-10-29T03:38:16.834Z,99.8
2022-10-29T03:39:17.353Z,99.8
2022-10-29T03:40:16.851Z,99.8
2022-10-29T03:41:17.324Z,99.8
2022-10-29T03:42:16.715Z,99.8
2022-10-29T03:43:17.150Z,99.8
2022-10-29T03:44:16.588Z,99.8
2022-10-29T03:45:17.016Z,99.8
2022-10-29T03:46:16.446Z,99.8
2022-10-29T03:47:16.876Z,99.8
2022-10-29T03:48:17.317Z,99.8
2022-10-29T03:49:16.786Z,99.8
2022-10-29T03:50:17.261Z,99.8
2022-10-29T03:51:16.728Z,99.8
2022-10-29T03:52:16.563Z,99.8
2022-10-29T03:53:17.079Z,99.8
2022-10-29T03:54:16.551Z,99.8
2022-10-29T03:55:17.017Z,99.8
2022-10-29T03:56:16.463Z,99.8
2022-10-29T03:57:16.933Z,99.9
2022-10-29T03:58:17.383Z,100.0
2022-10-29T03:59:16.843Z,100.0
2022-10-29T04:00:17.305Z,100.0
2022-10-29T04:01:16.896Z,100.0
2022-10-29T04:02:16.761Z,100.0
2022-10-29T04:03:17.282Z,100.0
2022-10-29T04:04:16.704Z,100.0
2022-10-29T04:05:17.195Z,100.0
2022-10-29T04:06:16.692Z,99.9
2022-10-29T04:07:17.165Z,99.9
2022-10-29T04:08:16.640Z,99.9
2022-10-29T04:09:17.164Z,100.0
2022-10-29T04:10:16.644Z,99.9
2022-10-29T04:11:17.146Z,99.9
2022-10-29T04:12:16.665Z,99.9
2022-10-29T04:13:17.092Z,99.9
2022-10-29T04:14:16.538Z,99.9
2022-10-29T04:15:16.992Z,99.8
2022-10-29T04:16:16.413Z,99.8
2022-10-29T04:17:16.884Z,99.9
2022-10-29T04:18:17.336Z,100.0
2022-10-29T04:19:16.806Z,100.0
2022-10-29T04:20:45.538Z,100.0
2022-10-29T04:23:08.292Z,100.0
2022-10-29T04:26:34.497Z,100.0
2022-10-29T04:28:18.079Z,100.0
2022-10-29T04:28:43.432Z,100.0
2022-10-29T04:29:16.976Z,100.0
2022-10-29T04:30:16.433Z,100.0
2022-10-29T04:31:16.869Z,100.0
2022-10-29T04:32:17.215Z,100.0
2022-10-29T04:33:16.663Z,100.0
2022-10-29T04:34:17.123Z,100.0
2022-10-29T04:35:16.581Z,100.0
2022-10-29T04:36:17.043Z,100.0
2022-10-29T04:37:16.526Z,100.0
2022-10-29T04:38:16.996Z,100.0
2022-10-29T04:39:23.329Z,100.0
2022-10-29T04:40:17.025Z,100.0
2022-10-29T04:41:16.455Z,100.0
2022-10-29T04:42:16.694Z,100.0
2022-10-29T04:43:17.122Z,100.0
2022-10-29T04:44:16.576Z,100.0
2022-10-29T04:45:17.009Z,100.0
2022-10-29T04:46:16.490Z,100.0
2022-10-29T04:47:16.936Z,100.0
2022-10-29T04:48:17.390Z,100.0
2022-10-29T04:49:16.968Z,100.0
2022-10-29T04:50:16.468Z,100.0
2022-10-29T04:51:16.946Z,100.0
2022-10-29T04:52:16.657Z,100.0
2022-10-29T04:53:17.130Z,100.0
2022-10-29T04:54:16.619Z,100.0
2022-10-29T04:55:17.132Z,100.0
2022-10-29T04:56:16.595Z,100.0
2022-10-29T04:57:17.019Z,100.0
2022-10-29T04:58:16.491Z,100.0
2022-10-29T04:59:16.922Z,100.0
2022-10-29T05:00:19.054Z,100.0
2022-10-29T05:01:16.969Z,100.0
2022-10-29T05:02:17.092Z,100.0
2022-10-29T05:03:16.540Z,99.9
2022-10-29T05:04:17.005Z,99.9
2022-10-29T05:05:16.478Z,99.8
2022-10-29T05:06:16.963Z,99.9
2022-10-29T05:07:17.444Z,99.8
2022-10-29T05:08:16.922Z,99.8
2022-10-29T05:09:17.389Z,99.8
2022-10-29T05:10:16.860Z,99.8
2022-10-29T05:11:17.290Z,99.9
2022-10-29T05:12:16.928Z,99.9
2022-10-29T05:13:17.348Z,99.9
2022-10-29T05:14:16.807Z,99.9
2022-10-29T05:15:17.235Z,99.9
2022-10-29T05:16:16.667Z,99.9
2022-10-29T05:17:17.112Z,99.9
2022-10-29T05:18:16.559Z,100.0
2022-10-29T05:19:17.028Z,100.0
2022-10-29T05:20:16.509Z,100.0
2022-10-29T05:21:16.956Z,99.9
2022-10-29T05:22:17.367Z,99.9
2022-10-29T05:23:16.840Z,99.9
2022-10-29T05:24:17.325Z,99.9
2022-10-29T05:25:16.778Z,99.9
2022-10-29T05:26:17.213Z,99.9
2022-10-29T05:27:16.669Z,99.9
2022-10-29T05:28:17.138Z,99.9
2022-10-29T05:29:16.576Z,99.9
2022-10-29T05:30:17.006Z,99.9
2022-10-29T05:31:16.448Z,99.9
2022-10-29T05:32:16.979Z,99.8
2022-10-29T05:33:16.480Z,99.8
2022-10-29T05:34:16.979Z,99.8
2022-10-29T05:35:16.457Z,99.8
2022-10-29T05:36:16.921Z,99.8
2022-10-29T05:37:17.421Z,99.8
2022-10-29T05:38:16.903Z,99.8
2022-10-29T05:39:17.348Z,99.8
2022-10-29T05:40:16.779Z,99.8
2022-10-29T05:41:17.260Z,99.7
2022-10-29T05:42:16.605Z,99.8
2022-10-29T05:43:17.049Z,99.7
2022-10-29T05:44:16.490Z,99.7
2022-10-29T05:45:16.928Z,99.7
2022-10-29T05:46:17.367Z,99.7
2022-10-29T05:47:16.859Z,99.7
2022-10-29T05:48:17.314Z,99.7
2022-10-29T05:49:16.804Z,99.7
2022-10-29T05:50:17.289Z,99.7
2022-10-29T05:51:16.747Z,99.7
2022-10-29T05:52:17.389Z,99.7
2022-10-29T05:53:16.857Z,99.7
2022-10-29T05:54:17.297Z,99.7
2022-10-29T05:55:16.731Z,99.7
2022-10-29T05:56:17.155Z,99.7
2022-10-29T05:57:16.583Z,99.7
2022-10-29T05:58:17.042Z,99.6
2022-10-29T05:59:16.462Z,99.6
2022-10-29T06:00:16.932Z,99.8
2022-10-29T06:01:17.522Z,100.0
2022-10-29T06:02:17.412Z,100.0
2022-10-29T06:03:17.142Z,100.0
2022-10-29T06:04:16.646Z,100.0
2022-10-29T06:05:17.151Z,100.0
2022-10-29T06:06:16.801Z,100.0
2022-10-29T06:07:17.304Z,100.0
2022-10-29T06:08:16.729Z,100.0
2022-10-29T06:09:17.155Z,100.0
2022-10-29T06:10:16.628Z,100.0
2022-10-29T06:11:17.061Z,100.0
2022-10-29T06:12:17.104Z,100.0
2022-10-29T06:13:16.586Z,100.0
2022-10-29T06:14:17.084Z,100.0
2022-10-29T06:15:16.581Z,100.0
2022-10-29T06:16:17.049Z,100.0
2022-10-29T06:17:16.510Z,100.0
2022-10-29T06:18:16.988Z,100.0
2022-10-29T06:19:16.446Z,100.0
2022-10-29T06:20:16.944Z,100.0
2022-10-29T06:21:17.421Z,100.0
2022-10-29T06:22:17.386Z,100.0
2022-10-29T06:23:16.822Z,99.8
2022-10-29T06:24:17.254Z,99.8
2022-10-29T06:25:16.685Z,99.8
2022-10-29T06:26:17.113Z,99.8
2022-10-29T06:27:16.568Z,99.7
2022-10-29T06:28:16.990Z,99.7
2022-10-29T06:29:16.483Z,99.7
2022-10-29T06:30:16.968Z,99.6
2022-10-29T06:31:17.451Z,99.5
2022-10-29T06:32:16.852Z,99.5
2022-10-29T06:33:17.317Z,99.5
2022-10-29T06:34:16.778Z,99.5
2022-10-29T06:35:17.349Z,99.5
2022-10-29T06:36:16.805Z,99.5
2022-10-29T06:37:17.280Z,99.4
2022-10-29T06:38:16.718Z,99.3
2022-10-29T06:39:17.169Z,99.3
2022-10-29T06:40:16.613Z,99.4
2022-10-29T06:41:17.093Z,99.4
2022-10-29T06:42:16.881Z,99.3
2022-10-29T06:43:17.316Z,99.3
2022-10-29T06:44:16.826Z,99.3
2022-10-29T06:45:17.317Z,99.3
2022-10-29T06:46:16.792Z,99.3
2022-10-29T06:47:17.248Z,99.3
2022-10-29T06:48:22.801Z,99.2
2022-10-29T06:49:17.363Z,99.3
2022-10-29T06:50:16.868Z,99.3
2022-10-29T06:51:17.431Z,99.4
2022-10-29T06:52:17.097Z,99.4
2022-10-29T06:53:16.527Z,99.4
2022-10-29T06:54:16.953Z,99.3
2022-10-29T06:55:17.410Z,99.3
2022-10-29T06:56:16.834Z,99.2
2022-10-29T06:57:17.343Z,99.0
2022-10-29T06:58:16.804Z,99.0
2022-10-29T06:59:17.295Z,99.0
2022-10-29T07:00:16.760Z,99.0
2022-10-29T07:01:17.383Z,99.2
2022-10-29T07:02:16.884Z,99.3
2022-10-29T07:03:17.374Z,99.3
2022-10-29T07:04:16.863Z,99.3
2022-10-29T07:05:17.332Z,99.4
2022-10-29T07:06:16.792Z,99.3
2022-10-29T07:07:17.305Z,99.2
2022-10-29T07:08:16.784Z,99.2
2022-10-29T07:09:17.236Z,99.0
2022-10-29T07:10:16.698Z,99.0
2022-10-29T07:11:17.132Z,99.0
2022-10-29T07:12:16.935Z,99.1
2022-10-29T07:13:17.386Z,99.2
2022-10-29T07:14:16.857Z,99.4
2022-10-29T07:15:17.297Z,99.4
2022-10-29T07:16:16.758Z,99.5
2022-10-29T07:17:17.233Z,99.5
2022-10-29T07:18:16.719Z,99.5
2022-10-29T07:19:17.231Z,99.4
2022-10-29T07:20:16.698Z,99.3
2022-10-29T07:21:17.129Z,99.2
2022-10-29T07:22:16.751Z,99.2
2022-10-29T07:23:17.287Z,99.4
2022-10-29T07:24:16.776Z,99.5
2022-10-29T07:25:17.219Z,99.5
2022-10-29T07:26:16.660Z,99.5
2022-10-29T07:27:17.219Z,99.5
2022-10-29T07:28:16.701Z,99.5
2022-10-29T07:29:17.157Z,99.5
2022-10-29T07:30:16.672Z,99.4
2022-10-29T07:31:17.158Z,99.3
2022-10-29T07:32:17.147Z,99.2
2022-10-29T07:33:16.631Z,99.1
2022-10-29T07:34:17.075Z,99.0
2022-10-29T07:35:16.508Z,99.0
2022-10-29T07:36:16.934Z,99.0
2022-10-29T07:37:17.408Z,99.0
2022-10-29T07:38:16.838Z,99.0
2022-10-29T07:39:17.598Z,99.1
2022-10-29T07:40:17.094Z,99.2
2022-10-29T07:41:16.520Z,99.1
2022-10-29T07:42:16.965Z,99.1
2022-10-29T07:43:17.433Z,99.2
2022-10-29T07:44:16.931Z,99.2
2022-10-29T07:45:17.404Z,99.2
2022-10-29T07:46:16.850Z,99.0
2022-10-29T07:47:17.336Z,99.0
2022-10-29T07:48:16.799Z,98.9
2022-10-29T07:49:17.281Z,98.9
2022-10-29T07:50:16.708Z,98.8
2022-10-29T07:51:17.176Z,98.8
2022-10-29T07:52:17.046Z,98.8
2022-10-29T07:53:16.475Z,98.8
2022-10-29T07:54:16.901Z,98.8
2022-10-29T07:55:17.478Z,98.8
2022-10-29T07:56:16.952Z,98.8
2022-10-29T07:57:17.481Z,98.7
2022-10-29T07:58:16.956Z,98.7
2022-10-29T07:59:17.450Z,98.7
2022-10-29T08:00:16.934Z,98.6
2022-10-29T08:01:17.744Z,98.6
2022-10-29T08:02:16.614Z,98.5
2022-10-29T08:03:17.089Z,98.5
2022-10-29T08:04:16.579Z,98.5
2022-10-29T08:05:17.025Z,98.5
2022-10-29T08:06:16.479Z,98.4
2022-10-29T08:07:16.940Z,98.5
2022-10-29T08:08:17.378Z,98.2
2022-10-29T08:09:16.804Z,98.3
2022-10-29T08:10:17.241Z,98.2
2022-10-29T08:11:16.671Z,98.3
2022-10-29T08:12:16.483Z,98.3
2022-10-29T08:13:16.953Z,98.2
2022-10-29T08:14:22.771Z,98.2
2022-10-29T08:15:17.388Z,98.2
2022-10-29T08:16:16.858Z,98.0
2022-10-29T08:17:17.352Z,97.9
2022-10-29T08:18:16.837Z,98.0
2022-10-29T08:19:17.334Z,98.0
2022-10-29T08:20:16.770Z,97.9
2022-10-29T08:21:17.203Z,97.9
2022-10-29T08:22:17.132Z,97.8
2022-10-29T08:23:16.558Z,97.8
2022-10-29T08:24:16.987Z,97.8
2022-10-29T08:25:16.442Z,97.8
2022-10-29T08:26:16.873Z,97.8
2022-10-29T08:27:17.381Z,97.8
2022-10-29T08:28:16.841Z,97.8
2022-10-29T08:29:17.315Z,97.9
2022-10-29T08:30:16.779Z,97.8
2022-10-29T08:31:17.243Z,97.7
2022-10-29T08:32:16.806Z,97.8
2022-10-29T08:33:17.301Z,97.8
2022-10-29T08:34:16.753Z,97.8
2022-10-29T08:35:17.230Z,97.6
2022-10-29T08:36:16.672Z,97.5
2022-10-29T08:37:17.129Z,97.4
2022-10-29T08:38:16.586Z,97.3
2022-10-29T08:39:17.025Z,97.2
2022-10-29T08:40:16.448Z,97.1
2022-10-29T08:41:16.899Z,96.8
2022-10-29T08:42:16.613Z,96.9
2022-10-29T08:43:17.075Z,96.5
2022-10-29T08:44:16.573Z,96.5
2022-10-29T08:45:17.080Z,96.5
2022-10-29T08:46:16.560Z,96.2
2022-10-29T08:47:17.039Z,96.0
2022-10-29T08:48:16.497Z,95.4
2022-10-29T08:49:16.954Z,95.5
2022-10-29T08:50:17.400Z,95.3
2022-10-29T08:51:16.827Z,95.0
2022-10-29T08:52:16.893Z,94.8
2022-10-29T08:53:25.134Z,94.7
2022-10-29T08:54:31.315Z,94.8
2022-10-29T08:55:16.938Z,94.5
2022-10-29T08:56:17.424Z,93.9
2022-10-29T08:57:16.889Z,93.8
2022-10-29T08:58:17.364Z,93.4
2022-10-29T08:59:16.845Z,93.6
2022-10-29T09:00:17.298Z,93.7
2022-10-29T09:01:17.170Z,93.8
2022-10-29T09:02:17.608Z,93.6
2022-10-29T09:03:17.132Z,93.7
2022-10-29T09:04:16.599Z,93.6
2022-10-29T09:05:17.037Z,93.3
2022-10-29T09:06:16.517Z,93.5
2022-10-29T09:07:16.971Z,93.8
2022-10-29T09:08:17.418Z,93.2
2022-10-29T09:09:16.898Z,93.5
2022-10-29T09:10:17.337Z,93.5
2022-10-29T09:11:16.786Z,93.3
2022-10-29T09:12:16.902Z,93.6
2022-10-29T09:13:17.375Z,93.2
2022-10-29T09:14:16.825Z,92.9
2022-10-29T09:15:17.320Z,92.9
2022-10-29T09:16:16.773Z,93.2
2022-10-29T09:17:17.234Z,93.2
2022-10-29T09:18:16.731Z,92.9
2022-10-29T09:19:17.193Z,92.8
2022-10-29T09:20:16.630Z,92.7
2022-10-29T09:21:17.079Z,93.1
2022-10-29T09:22:16.868Z,92.9
2022-10-29T09:23:17.353Z,92.5
2022-10-29T09:24:16.813Z,93.0
2022-10-29T09:25:17.237Z,92.8
2022-10-29T09:26:16.683Z,92.3
2022-10-29T09:27:17.345Z,92.5
2022-10-29T09:28:16.801Z,92.2
2022-10-29T09:29:17.311Z,92.0
2022-10-29T09:30:16.801Z,92.4
2022-10-29T09:31:17.318Z,92.4
2022-10-29T09:32:17.410Z,92.2
2022-10-29T09:33:16.921Z,91.7
2022-10-29T09:34:17.417Z,91.8
2022-10-29T09:35:16.863Z,91.3
2022-10-29T09:36:17.303Z,91.2
2022-10-29T09:37:16.746Z,91.2
2022-10-29T09:38:17.210Z,91.8
2022-10-29T09:39:16.638Z,91.5
2022-10-29T09:40:17.071Z,91.6
2022-10-29T09:41:16.526Z,91.5
2022-10-29T09:42:16.684Z,91.3
2022-10-29T09:43:17.162Z,91.0
2022-10-29T09:44:16.630Z,90.5
2022-10-29T09:45:17.116Z,90.2
2022-10-29T09:46:16.566Z,90.2
2022-10-29T09:47:17.050Z,89.8
2022-10-29T09:48:16.513Z,90.1
2022-10-29T09:49:17.022Z,90.5
2022-10-29T09:50:16.445Z,89.7
2022-10-29T09:51:16.892Z,89.5
2022-10-29T09:52:16.661Z,89.0
2022-10-29T09:53:17.082Z,89.3
2022-10-29T09:54:16.560Z,89.2
2022-10-29T09:55:17.005Z,89.2
2022-10-29T09:56:16.444Z,88.9
2022-10-29T09:57:16.917Z,88.5
2022-10-29T09:58:17.415Z,88.7
2022-10-29T09:59:16.876Z,88.3
2022-10-29T10:00:17.351Z,86.8
2022-10-29T10:01:16.937Z,86.2
2022-10-29T10:02:16.737Z,85.5
2022-10-29T10:03:17.540Z,84.8
2022-10-29T10:04:17.071Z,84.3
2022-10-29T10:05:16.507Z,84.1
2022-10-29T10:06:16.985Z,82.3
2022-10-29T10:07:16.430Z,82.3
2022-10-29T10:08:16.878Z,81.7
2022-10-29T10:09:17.315Z,81.6
2022-10-29T10:10:16.774Z,81.1
2022-10-29T10:11:17.212Z,80.2
2022-10-29T10:12:16.560Z,79.8
2022-10-29T10:13:18.971Z,79.3
2022-10-29T10:14:17.262Z,78.0
2022-10-29T10:15:16.731Z,78.2
2022-10-29T10:16:17.218Z,77.5
2022-10-29T10:17:16.717Z,76.8
2022-10-29T10:18:17.216Z,76.0
2022-10-29T10:19:16.668Z,75.8
2022-10-29T10:20:17.202Z,76.4
2022-10-29T10:21:16.676Z,76.5
2022-10-29T10:22:16.958Z,76.5
2022-10-29T10:23:17.435Z,76.3
2022-10-29T10:24:16.868Z,76.2
2022-10-29T10:25:17.417Z,75.2
2022-10-29T10:26:16.858Z,75.3
2022-10-29T10:27:17.335Z,75.4
2022-10-29T10:28:16.807Z,74.9
2022-10-29T10:29:17.303Z,74.3
2022-10-29T10:30:16.984Z,75.3
2022-10-29T10:31:16.484Z,75.6
2022-10-29T10:32:16.732Z,75.7
2022-10-29T10:33:17.336Z,73.2
2022-10-29T10:34:16.797Z,73.3
2022-10-29T10:35:17.229Z,73.3
2022-10-29T10:36:16.667Z,72.7
2022-10-29T10:37:17.101Z,72.9
2022-10-29T10:38:16.710Z,73.1
2022-10-29T10:39:17.260Z,72.8
2022-10-29T10:40:16.853Z,73.5
2022-10-29T10:41:17.328Z,72.2
2022-10-29T10:42:17.196Z,73.4
2022-10-29T10:43:16.672Z,73.3
2022-10-29T10:44:17.140Z,71.8
2022-10-29T10:45:16.652Z,71.7
2022-10-29T10:46:17.127Z,72.4
2022-10-29T10:47:16.607Z,73.6
2022-10-29T10:48:17.274Z,71.7
2022-10-29T10:49:16.783Z,73.5
2022-10-29T10:50:17.324Z,74.2
2022-10-29T10:51:16.774Z,73.2
2022-10-29T10:52:17.014Z,72.2
2022-10-29T10:53:16.454Z,71.6
2022-10-29T10:54:17.001Z,71.2
2022-10-29T10:55:16.503Z,70.5
2022-10-29T10:56:16.980Z,70.1
2022-10-29T10:57:16.447Z,70.3
2022-10-29T10:58:16.932Z,72.1
2022-10-29T10:59:17.405Z,71.9
2022-10-29T11:00:16.938Z,72.3
2022-10-29T11:01:17.688Z,72.1
2022-10-29T11:02:16.895Z,71.0
2022-10-29T11:03:17.605Z,72.5
2022-10-29T11:04:17.084Z,72.3
2022-10-29T11:05:16.533Z,72.5
2022-10-29T11:06:16.972Z,72.5
2022-10-29T11:07:16.448Z,72.5
2022-10-29T11:08:16.878Z,72.1
2022-10-29T11:09:17.313Z,72.8
2022-10-29T11:10:16.877Z,71.8
2022-10-29T11:11:17.317Z,71.4
2022-10-29T11:12:17.153Z,71.7
2022-10-29T11:13:16.638Z,71.8
2022-10-29T11:14:17.102Z,72.8
2022-10-29T11:15:16.571Z,73.1
2022-10-29T11:16:17.032Z,72.4
2022-10-29T11:17:16.497Z,71.6
2022-10-29T11:19:17.384Z,72.9
2022-10-29T11:20:17.139Z,72.4
2022-10-29T11:21:16.616Z,72.2
2022-10-29T11:22:17.190Z,72.5
2022-10-29T11:23:16.654Z,72.2
2022-10-29T11:24:17.093Z,72.2
2022-10-29T11:25:16.520Z,72.2
2022-10-29T11:26:16.985Z,72.8
2022-10-29T11:27:16.458Z,72.8
2022-10-29T11:28:16.928Z,72.6
2022-10-29T11:29:17.408Z,71.7
2022-10-29T11:30:16.883Z,73.8
2022-10-29T11:31:17.347Z,74.0
2022-10-29T11:32:17.122Z,73.2
2022-10-29T11:34:17.028Z,73.6
2022-10-29T11:35:16.466Z,73.3
2022-10-29T11:36:16.896Z,73.0
2022-10-29T11:37:17.322Z,73.3
2022-10-29T11:38:16.801Z,73.9
2022-10-29T11:39:17.250Z,74.7
2022-10-29T11:40:16.737Z,75.0
2022-10-29T11:41:17.234Z,74.5
2022-10-29T11:42:16.885Z,74.7
2022-10-29T11:43:17.392Z,74.2
2022-10-29T11:44:16.869Z,74.8
2022-10-29T11:45:17.328Z,75.8
2022-10-29T11:46:16.824Z,76.1
2022-10-29T11:47:17.318Z,75.6
2022-10-29T11:48:22.084Z,75.8
2022-10-29T11:49:16.632Z,76.3
2022-10-29T11:50:17.128Z,76.0
2022-10-29T11:51:16.582Z,75.9
2022-10-29T11:52:17.035Z,75.4
2022-10-29T11:53:16.490Z,75.4
2022-10-29T11:54:16.921Z,76.2
2022-10-29T11:55:17.393Z,75.7
2022-10-29T11:56:16.866Z,76.5
2022-10-29T11:57:17.326Z,76.3
2022-10-29T11:58:16.792Z,76.2
2022-10-29T11:59:17.246Z,75.9
2022-10-29T12:00:16.756Z,75.8
2022-10-29T12:01:17.377Z,75.8
2022-10-29T12:02:16.821Z,75.4
2022-10-29T12:03:17.424Z,75.5
2022-10-29T12:04:23.113Z,75.8
2022-10-29T12:05:16.858Z,75.6
2022-10-29T12:06:17.310Z,75.4
2022-10-29T12:07:16.731Z,75.0
2022-10-29T12:08:17.196Z,75.4
2022-10-29T12:09:16.664Z,76.1
2022-10-29T12:10:17.163Z,76.0
2022-10-29T12:11:16.671Z,76.5
2022-10-29T12:12:16.574Z,76.5
2022-10-29T12:13:17.077Z,76.9
2022-10-29T12:14:16.557Z,76.5
2022-10-29T12:15:17.031Z,76.4
2022-10-29T12:16:16.508Z,76.4
2022-10-29T12:17:16.941Z,76.2
2022-10-29T12:18:17.621Z,76.0
2022-10-29T12:19:17.111Z,76.2
2022-10-29T12:20:16.606Z,76.3
2022-10-29T12:21:17.047Z,76.2
2022-10-29T12:22:16.660Z,76.5
2022-10-29T12:23:17.573Z,76.1
2022-10-29T12:24:17.193Z,76.3
2022-10-29T12:25:16.693Z,76.6
2022-10-29T12:26:17.191Z,77.0
2022-10-29T12:27:16.641Z,76.6
2022-10-29T12:28:17.114Z,76.7
2022-10-29T12:29:16.592Z,76.5
2022-10-29T12:30:17.055Z,76.6
2022-10-29T12:31:16.544Z,76.2
2022-10-29T12:32:17.273Z,77.2
2022-10-29T12:33:16.697Z,77.2
2022-10-29T12:34:17.149Z,76.7
2022-10-29T12:35:16.585Z,77.0
2022-10-29T12:36:17.022Z,77.8
2022-10-29T12:37:16.500Z,77.2
2022-10-29T12:38:16.946Z,77.5
2022-10-29T12:39:17.407Z,77.8
2022-10-29T12:40:16.864Z,77.1
2022-10-29T12:41:17.337Z,77.5
2022-10-29T12:42:17.174Z,77.9
2022-10-29T12:43:16.657Z,78.0
2022-10-29T12:44:17.123Z,78.1
2022-10-29T12:45:16.602Z,78.2
2022-10-29T12:46:21.770Z,77.8
2022-10-29T12:47:17.276Z,78.0
2022-10-29T12:48:16.724Z,77.8
2022-10-29T12:49:17.152Z,77.8
2022-10-29T12:50:16.637Z,77.8
2022-10-29T12:51:17.104Z,78.0
2022-10-29T12:52:16.734Z,77.4
2022-10-29T12:53:17.164Z,76.8
2022-10-29T12:54:16.607Z,76.8
2022-10-29T12:55:17.071Z,76.7
2022-10-29T12:56:16.917Z,76.8
2022-10-29T12:57:17.396Z,77.0
2022-10-29T12:58:16.867Z,76.6
2022-10-29T12:59:17.358Z,76.7
2022-10-29T13:00:16.835Z,77.3
2022-10-29T13:01:17.577Z,76.9
2022-10-29T13:02:17.549Z,77.5
2022-10-29T13:03:17.160Z,76.4
2022-10-29T13:04:16.624Z,75.9
2022-10-29T13:05:17.072Z,76.0
2022-10-29T13:06:16.494Z,75.5
2022-10-29T13:07:16.977Z,75.4
2022-10-29T13:08:16.449Z,74.8
2022-10-29T13:09:16.907Z,74.0
2022-10-29T13:10:17.392Z,74.7
2022-10-29T13:11:16.903Z,73.8
2022-10-29T13:12:16.606Z,74.2
2022-10-29T13:13:17.092Z,75.3
2022-10-29T13:14:16.573Z,74.2
2022-10-29T13:15:17.023Z,74.3
2022-10-29T13:16:16.467Z,73.6
2022-10-29T13:17:16.906Z,73.8
2022-10-29T13:18:17.364Z,74.2
2022-10-29T13:19:16.845Z,74.0
2022-10-29T13:20:17.269Z,73.8
2022-10-29T13:21:16.694Z,74.1
2022-10-29T13:22:16.694Z,73.5
2022-10-29T13:23:17.203Z,74.2